Date,TemperatureHighF,TemperatureAvgF,TemperatureLowF,DewpointHighF,DewpointAvgF,DewpointLowF,HumidityHigh,HumidityAvg,HumidityLow,PressureMaxIn,PressureMinIn,WindSpeedMaxMPH,WindSpeedAvgMPH,GustSpeedMaxMPH,PrecipitationSumIn
2013-9-1,89,75,67,75,70,66,96,85,57,30.27,29.73,24,2,27,1.43
2013-9-2,89,78,69,75,72,68,98,82,58,30.27,29.68,10,2,11,0.00
2013-9-3,84,75,64,73,64,57,90,70,48,30.27,29.71,14,3,18,0.00
2013-9-4,81,69,57,73,60,55,94,73,50,30.27,29.96,7,1,14,0.00
2013-9-5,82,70,58,73,60,54,94,73,53,30.27,30.00,14,2,17,0.00
2013-9-6,77,64,51,73,53,48,93,71,39,30.27,30.10,6,1,12,0.00
2013-9-7,82,66,51,73,58,49,95,77,48,30.27,29.92,6,1,8,0.00
2013-9-8,87,73,62,73,65,58,92,77,54,30.27,29.84,9,2,12,0.00
2013-9-9,78,70,63,73,62,54,88,76,62,30.27,30.01,12,3,14,0.00
2013-9-10,92,80,67,76,71,64,92,76,55,30.27,30.03,10,2,11,0.00
2013-9-11,92,80,72,77,73,70,95,80,57,30.27,29.96,11,2,12,0.00
2013-9-12,89,76,70,76,70,65,96,83,58,30.27,29.72,18,3,25,0.00
2013-9-13,77,68,58,73,58,49,90,71,46,30.27,29.70,21,4,23,0.00
2013-9-14,77,58,48,73,48,44,89,70,51,30.27,29.95,13,2,16,0.00
2013-9-15,77,62,46,73,54,44,95,76,51,30.27,30.04,12,2,16,0.00
2013-9-16,70,64,58,62,58,55,94,83,65,30.22,30.01,12,1,14,0.00
2013-9-17,77,58,47,73,48,42,93,70,39,30.41,30.22,12,2,15,0.00
2013-9-18,77,56,41,73,48,40,95,76,52,30.32,30.15,11,2,13,0.00
2013-9-19,77,62,49,73,56,47,95,81,64,30.27,30.04,9,1,11,0.00
2013-9-20,80,68,55,73,61,54,97,81,62,30.27,29.90,15,3,18,0.00
2013-9-21,77,66,61,73,63,60,96,91,79,30.27,29.65,13,3,25,0.52
2013-9-22,77,63,54,73,55,47,97,78,52,30.27,29.72,11,2,16,0.01
2013-9-23,77,57,48,73,48,44,91,72,53,30.27,29.95,11,2,15,0.00
2013-9-24,74,56,41,56,49,39,96,79,50,30.12,29.93,7,1,8,0.01
2013-9-25,77,59,45,73,51,44,97,77,43,30.27,29.86,6,1,10,0.01
2013-9-26,77,61,49,73,52,48,96,75,40,30.27,29.91,10,1,12,0.00
2013-9-27,77,59,46,73,53,45,96,81,52,30.27,30.05,5,1,7,0.00
2013-9-28,77,59,48,73,54,47,97,85,63,30.30,30.20,6,1,10,0.01
2013-9-29,77,59,46,73,52,44,97,79,49,30.27,30.03,8,1,11,0.00
2013-9-30,78,62,48,73,53,46,96,76,47,30.27,29.94,6,1,12,0.01